Time;durP1;ratioP1;P1;durP2;ratioP2;P2;SDS_P1;SDS_P2;PMS_P1;PMS_P2;Temp;Humidity;BMP_temperature;BMP_pressure;BME280_temperature;BME280_humidity;BME280_pressure;Samples;Min_cycle;Max_cycle;Signal;HPM_P1;HPM_P2
2021/03/16 00:01:51;;;;;;;11.13;3.30;;;;;;;3.25;77.57;99209.81;5068817;28;20416;-81
2021/03/16 00:04:17;;;;;;;5.68;2.95;;;;;;;3.12;76.99;99207.38;5071875;28;20052;-81
2021/03/16 00:06:44;;;;;;;13.95;2.50;;;;;;;3.15;77.47;99211.63;5071092;28;20041;-81
2021/03/16 00:09:11;;;;;;;4.93;2.58;;;;;;;3.19;77.03;99223.78;5068224;28;20090;-82
2021/03/16 00:11:37;;;;;;;8.07;2.80;;;;;;;3.14;77.05;99226.03;5065673;28;20416;-81
2021/03/16 00:14:04;;;;;;;12.77;3.15;;;;;;;3.21;76.89;99229.00;5070524;28;20409;-81
2021/03/16 00:16:30;;;;;;;4.80;2.88;;;;;;;3.16;77.11;99227.59;5071639;28;20057;-81
2021/03/16 00:18:56;;;;;;;4.50;2.20;;;;;;;3.02;76.96;99219.91;5067749;28;20056;-81
2021/03/16 00:21:22;;;;;;;11.55;3.30;;;;;;;3.10;76.64;99221.91;5071082;28;20055;-81
2021/03/16 00:23:50;;;;;;;4.90;2.00;;;;;;;2.97;76.65;99206.88;5071514;28;20056;-81
2021/03/16 00:26:16;;;;;;;7.32;3.30;;;;;;;3.12;76.66;99231.53;5070533;28;20503;-80
2021/03/16 00:28:42;;;;;;;6.72;2.30;;;;;;;3.09;76.52;99233.66;5071809;28;20098;-81
2021/03/16 00:31:09;;;;;;;8.75;2.25;;;;;;;2.96;76.70;99210.53;5071168;28;20044;-81
2021/03/16 00:33:35;;;;;;;8.50;3.25;;;;;;;2.95;76.80;99214.25;5071419;28;20053;-81
2021/03/16 00:36:02;;;;;;;12.07;2.67;;;;;;;3.02;76.94;99222.59;5069926;28;20523;-81
2021/03/16 00:38:28;;;;;;;9.80;2.80;;;;;;;3.04;77.17;99231.38;5071542;28;20052;-81
2021/03/16 00:40:55;;;;;;;10.38;2.10;;;;;;;3.08;77.24;99235.47;5070423;28;20040;-81
2021/03/16 00:43:21;;;;;;;6.45;3.65;;;;;;;3.06;76.94;99224.03;5071208;28;20542;-81
2021/03/16 00:45:48;;;;;;;8.13;2.42;;;;;;;3.07;77.08;99231.13;5069932;28;20260;-81
2021/03/16 00:48:15;;;;;;;6.88;2.25;;;;;;;3.14;77.08;99253.75;5070587;28;20051;-81
2021/03/16 00:50:41;;;;;;;10.75;2.33;;;;;;;3.05;76.80;99238.44;5071053;28;20040;-81
2021/03/16 00:53:08;;;;;;;5.90;1.98;;;;;;;3.11;76.76;99248.63;5069273;28;20059;-81
2021/03/16 00:55:34;;;;;;;8.82;2.45;;;;;;;3.14;77.25;99243.00;5070271;28;20081;-81
2021/03/16 00:58:02;;;;;;;5.10;2.17;;;;;;;3.01;76.30;99237.00;5070347;28;20067;-81
2021/03/16 01:00:28;;;;;;;10.15;1.77;;;;;;;3.09;76.49;99253.31;5070997;28;20098;-81
2021/03/16 01:02:54;;;;;;;9.52;3.00;;;;;;;3.14;75.63;99251.06;5068717;28;20071;-81
2021/03/16 01:05:21;;;;;;;5.43;1.95;;;;;;;3.16;75.93;99254.47;5069841;28;20043;-81
2021/03/16 01:07:47;;;;;;;9.70;2.25;;;;;;;3.15;75.51;99247.38;5069797;28;20041;-81
2021/03/16 01:10:17;;;;;;;8.73;2.20;;;;;;;3.10;75.77;99232.66;5069579;28;20071;-81
2021/03/16 01:12:44;;;;;;;4.75;1.90;;;;;;;3.13;75.45;99254.75;5065593;28;20044;-81
2021/03/16 01:15:13;;;;;;;4.43;1.90;;;;;;;3.14;75.54;99253.75;5069032;28;20488;-81
2021/03/16 01:17:40;;;;;;;4.75;1.67;;;;;;;3.11;73.94;99248.63;5070560;28;20056;-80
2021/03/16 01:20:10;;;;;;;8.60;2.15;;;;;;;3.05;74.14;99232.22;5068655;28;20047;-81
2021/03/16 01:22:36;;;;;;;5.07;1.77;;;;;;;3.12;74.70;99249.50;5070246;28;20504;-81
2021/03/16 01:25:03;;;;;;;8.80;2.22;;;;;;;3.13;74.27;99254.75;5069636;28;20055;-81
2021/03/16 01:27:29;;;;;;;5.13;1.70;;;;;;;3.08;74.15;99240.84;5063436;28;20060;-81
2021/03/16 01:29:56;;;;;;;5.22;1.80;;;;;;;3.13;73.96;99256.56;5070138;28;20052;-80
2021/03/16 01:32:23;;;;;;;4.80;1.70;;;;;;;3.17;74.09;99266.91;5070430;28;20099;-81
2021/03/16 01:34:49;;;;;;;4.43;1.45;;;;;;;3.11;73.66;99258.53;5069667;28;20557;-81
2021/03/16 01:37:15;;;;;;;3.88;1.70;;;;;;;3.16;74.04;99269.72;5069438;28;20044;-81
2021/03/16 01:39:42;;;;;;;11.93;2.38;;;;;;;3.12;73.94;99269.16;5070281;28;20044;-81
2021/03/16 01:42:08;;;;;;;6.13;2.45;;;;;;;3.24;73.95;99280.66;5069626;28;20044;-81
2021/03/16 01:44:34;;;;;;;3.72;2.28;;;;;;;3.14;73.86;99256.41;5069482;28;20060;-81
2021/03/16 01:47:01;;;;;;;3.05;1.65;;;;;;;3.25;73.61;99285.06;5070110;28;20055;-81
2021/03/16 01:49:28;;;;;;;2.60;1.55;;;;;;;3.19;74.40;99282.88;5069641;28;20198;-81
2021/03/16 01:51:54;;;;;;;11.80;2.67;;;;;;;3.22;74.43;99279.09;5070052;28;20049;-81
2021/03/16 01:54:21;;;;;;;6.45;1.50;;;;;;;3.18;74.64;99275.81;5068677;28;20542;-81
2021/03/16 01:56:48;;;;;;;2.70;1.38;;;;;;;3.10;74.34;99273.81;5070268;28;20056;-81
2021/03/16 01:59:17;;;;;;;4.85;2.22;;;;;;;3.12;74.82;99277.22;5069991;28;20462;-81
2021/03/16 02:01:44;;;;;;;17.92;1.95;;;;;;;3.09;75.16;99274.78;5070090;28;21352;-81
2021/03/16 02:04:10;;;;;;;5.72;1.90;;;;;;;3.04;75.50;99274.34;5060299;28;20041;-81
2021/03/16 02:06:44;;;;;;;5.88;1.38;;;;;;;3.12;75.55;99287.97;5050113;28;20049;-81
2021/03/16 02:09:15;;;;;;;9.90;2.15;;;;;;;3.06;74.85;99260.78;5063458;28;20090;-81
2021/03/16 02:11:48;;;;;;;10.95;2.20;;;;;;;3.14;75.08;99288.66;5070043;28;20063;-82
2021/03/16 02:14:22;;;;;;;5.18;1.88;;;;;;;3.11;75.78;99280.88;5066219;28;20037;-81
2021/03/16 02:16:54;;;;;;;6.10;2.20;;;;;;;2.98;75.71;99262.31;5051515;28;20045;-81
2021/03/16 02:19:45;;;;;;;6.97;1.73;;;;;;;3.03;75.20;99255.66;5053440;28;20070;-81
2021/03/16 02:22:13;;;;;;;5.57;1.73;;;;;;;3.10;75.48;99278.31;5069755;28;20052;-81
2021/03/16 02:24:55;;;;;;;7.43;1.80;;;;;;;2.94;75.12;99266.25;5069132;28;20048;-81
2021/03/16 02:27:25;;;;;;;15.77;1.92;;;;;;;2.97;75.36;99257.91;5069395;28;20048;-81
2021/03/16 02:29:55;;;;;;;7.00;2.30;;;;;;;2.98;75.80;99283.78;5067652;28;20048;-81
2021/03/16 02:32:24;;;;;;;7.95;2.17;;;;;;;3.00;75.58;99281.81;5062502;28;20052;-81
2021/03/16 02:34:54;;;;;;;4.73;1.60;;;;;;;2.98;75.58;99273.06;5065374;28;20098;-81
2021/03/16 02:37:24;;;;;;;7.93;2.20;;;;;;;3.00;75.89;99284.50;5069517;28;20290;-81
2021/03/16 02:39:53;;;;;;;6.28;1.75;;;;;;;2.96;75.95;99268.78;5069517;28;20511;-81
2021/03/16 02:42:20;;;;;;;4.90;1.90;;;;;;;3.02;76.01;99289.75;5069276;28;20040;-81
2021/03/16 02:44:47;;;;;;;3.85;1.50;;;;;;;2.95;75.92;99286.75;5068834;28;20222;-80
2021/03/16 02:47:15;;;;;;;4.15;1.60;;;;;;;2.96;75.58;99276.84;5069310;28;20098;-81
2021/03/16 02:49:44;;;;;;;2.83;1.55;;;;;;;3.01;75.35;99285.34;5068714;28;20057;-81
2021/03/16 02:52:12;;;;;;;6.43;1.77;;;;;;;2.98;75.72;99301.72;5069627;28;20048;-81
2021/03/16 02:54:39;;;;;;;4.85;1.90;;;;;;;2.95;75.58;99293.94;5063379;28;20106;-81
2021/03/16 02:57:36;;;;;;;3.72;1.42;;;;;;;2.95;75.42;99294.81;5064696;28;20057;-81
2021/03/16 03:00:05;;;;;;;7.80;1.85;;;;;;;2.80;76.29;99269.25;5068971;28;20049;-81
2021/03/16 03:02:33;;;;;;;14.73;2.92;;;;;;;2.81;76.58;99289.75;5069762;28;20450;-81
2021/03/16 03:05:18;;;;;;;;;;;;;;;;;;;;;
2021/03/16 03:07:49;;;;;;;8.65;1.77;;;;;;;2.87;76.69;99307.19;5069841;28;20049;-81
2021/03/16 03:10:15;;;;;;;7.63;2.35;;;;;;;2.82;77.36;99319.16;5063802;28;20540;-81
2021/03/16 03:12:41;;;;;;;8.95;2.45;;;;;;;2.78;79.23;99325.78;5067090;28;20065;-81
2021/03/16 03:15:14;;;;;;;12.45;2.30;;;;;;;2.75;79.70;99325.19;5068941;28;20036;-81
2021/03/16 03:17:41;;;;;;;14.57;2.38;;;;;;;2.66;80.79;99316.09;5068414;28;20064;-81
2021/03/16 03:20:13;;;;;;;9.55;2.70;;;;;;;2.72;81.35;99337.03;5064467;28;20106;-81
2021/03/16 03:22:43;;;;;;;14.07;2.50;;;;;;;2.62;81.30;99339.66;5072871;28;20059;-81
2021/03/16 03:25:20;;;;;;;7.55;2.53;;;;;;;2.55;81.34;99329.59;5072497;28;20057;-81
2021/03/16 03:28:04;;;;;;;4.97;2.40;;;;;;;2.50;80.70;99316.56;5070953;28;20064;-81
2021/03/16 03:30:32;;;;;;;10.05;2.25;;;;;;;2.64;81.58;99339.53;5073458;28;20052;-81
2021/03/16 03:33:15;;;;;;;5.05;2.00;;;;;;;2.59;80.24;99331.88;5072433;28;20048;-81
2021/03/16 03:35:42;;;;;;;4.18;2.17;;;;;;;2.56;80.62;99336.63;5072805;28;20484;-81
2021/03/16 03:38:22;;;;;;;14.15;2.83;;;;;;;2.55;80.20;99332.28;5072498;28;20055;-82
2021/03/16 03:40:50;;;;;;;6.35;1.63;;;;;;;2.53;79.64;99339.56;5073242;28;20053;-82
2021/03/16 03:43:18;;;;;;;8.25;2.47;;;;;;;2.64;79.71;99361.00;5072009;28;20052;-81
2021/03/16 03:45:49;;;;;;;6.93;2.28;;;;;;;2.62;79.56;99342.34;5070487;28;20477;-81
2021/03/16 03:48:21;;;;;;;18.83;3.17;;;;;;;2.62;79.54;99350.41;5060569;28;20404;-81
2021/03/16 03:50:52;;;;;;;9.13;2.40;;;;;;;2.61;79.23;99353.22;5072878;28;20048;-81
2021/03/16 03:53:19;;;;;;;4.80;1.75;;;;;;;2.57;79.48;99349.09;5071218;28;20052;-81
2021/03/16 03:55:46;;;;;;;7.50;2.50;;;;;;;2.71;79.41;99366.69;5071574;28;20049;-82
2021/03/16 03:58:14;;;;;;;9.95;2.28;;;;;;;2.61;80.27;99361.28;5072300;28;20087;-81
2021/03/16 04:00:41;;;;;;;6.97;2.05;;;;;;;2.62;79.91;99354.91;5071780;28;20041;-82
2021/03/16 04:03:08;;;;;;;11.75;2.72;;;;;;;2.57;79.79;99368.72;5072150;28;20056;-82
2021/03/16 04:05:36;;;;;;;4.72;1.60;;;;;;;2.63;79.81;99365.53;5070540;28;20044;-81
2021/03/16 04:08:04;;;;;;;4.03;1.80;;;;;;;2.66;79.17;99385.88;5071824;28;20121;-81
2021/03/16 04:10:31;;;;;;;4.45;2.10;;;;;;;2.70;79.43;99384.66;5068163;28;20048;-82
2021/03/16 04:12:58;;;;;;;9.77;1.95;;;;;;;2.62;78.58;99376.38;5072706;28;20064;-82
2021/03/16 04:15:25;;;;;;;4.10;1.52;;;;;;;2.59;77.75;99368.59;5071261;28;20041;-81
2021/03/16 04:17:52;;;;;;;7.03;1.98;;;;;;;2.64;77.63;99387.84;5069966;28;20118;-81
2021/03/16 04:20:18;;;;;;;3.90;1.42;;;;;;;2.59;78.11;99376.63;5062406;28;20504;-81
2021/03/16 04:22:46;;;;;;;4.80;1.52;;;;;;;2.62;78.31;99373.69;5071109;28;20067;-81
2021/03/16 04:25:13;;;;;;;10.13;1.70;;;;;;;2.64;78.71;99387.84;5071279;28;20052;-82
2021/03/16 04:27:39;;;;;;;10.55;1.88;;;;;;;2.46;78.86;99385.72;5065822;28;20409;-81
2021/03/16 04:30:07;;;;;;;4.35;1.30;;;;;;;2.56;79.50;99406.41;5052263;28;20130;-81
2021/03/16 04:32:33;;;;;;;3.10;1.63;;;;;;;2.32;80.53;99385.16;5068754;28;20106;-82
2021/03/16 04:35:00;;;;;;;3.78;2.10;;;;;;;2.29;80.31;99391.66;5070909;28;20045;-82
2021/03/16 04:37:27;;;;;;;10.77;1.98;;;;;;;2.23;81.25;99379.59;5071555;28;20082;-82
2021/03/16 04:39:54;;;;;;;4.75;1.80;;;;;;;2.32;81.17;99394.06;5070794;28;20361;-82
2021/03/16 04:42:20;;;;;;;4.80;2.22;;;;;;;2.30;80.67;99396.88;5071555;28;20045;-82
2021/03/16 04:44:47;;;;;;;10.52;3.70;;;;;;;2.28;81.50;99395.31;5069971;28;20114;-81
2021/03/16 04:47:14;;;;;;;11.50;1.80;;;;;;;2.24;81.50;99396.53;5071349;28;20078;-82
2021/03/16 04:49:40;;;;;;;5.78;1.70;;;;;;;2.22;81.59;99391.28;5070857;28;20166;-82
2021/03/16 04:52:06;;;;;;;5.03;1.98;;;;;;;2.19;82.03;99402.28;5070758;28;20408;-83
2021/03/16 04:54:33;;;;;;;7.32;2.00;;;;;;;2.10;81.46;99377.03;5067746;28;20040;-81
2021/03/16 04:57:00;;;;;;;4.75;1.98;;;;;;;2.33;81.72;99413.69;5061171;28;20492;-82
2021/03/16 04:59:26;;;;;;;11.23;2.50;;;;;;;2.17;82.04;99398.00;5064116;28;20585;-82
2021/03/16 05:01:52;;;;;;;7.30;2.05;;;;;;;2.18;81.67;99400.56;5069936;28;20048;-81
2021/03/16 05:04:19;;;;;;;16.83;2.45;;;;;;;2.25;81.38;99403.59;5070264;28;20102;-81
2021/03/16 05:06:45;;;;;;;4.18;2.05;;;;;;;2.33;81.95;99413.69;5069839;28;20043;-82
2021/03/16 05:09:12;;;;;;;4.38;2.30;;;;;;;2.32;81.86;99414.66;5068893;28;20048;-81
2021/03/16 05:11:39;;;;;;;3.75;1.90;;;;;;;2.37;82.11;99426.72;5071243;28;20052;-81
2021/03/16 05:14:06;;;;;;;8.45;2.85;;;;;;;2.30;82.91;99431.75;5061548;28;20052;-81
2021/03/16 05:16:32;;;;;;;14.57;3.22;;;;;;;2.07;83.42;99409.47;5070738;28;20053;-81
2021/03/16 05:19:01;;;;;;;4.85;2.72;;;;;;;2.06;84.07;99425.69;5068719;28;20373;-81
2021/03/16 05:21:28;;;;;;;9.43;2.47;;;;;;;2.06;83.97;99426.56;5061330;28;20511;-82
2021/03/16 05:23:56;;;;;;;6.65;2.33;;;;;;;2.04;83.96;99427.66;5067575;28;20037;-84
2021/03/16 05:26:23;;;;;;;5.65;2.10;;;;;;;2.02;84.33;99429.59;5070060;28;20106;-81
2021/03/16 05:28:49;;;;;;;13.95;2.80;;;;;;;2.18;84.32;99456.03;5066735;28;20476;-82
2021/03/16 05:31:22;;;;;;;7.22;2.85;;;;;;;2.13;83.78;99435.78;5053118;28;20064;-82
2021/03/16 05:33:51;;;;;;;3.75;1.63;;;;;;;2.10;82.92;99437.88;5053052;28;20049;-82
2021/03/16 05:36:17;;;;;;;6.78;2.33;;;;;;;2.20;83.57;99440.66;5070130;28;20048;-82
2021/03/16 05:38:50;;;;;;;8.95;2.22;;;;;;;2.28;84.06;99460.53;5070266;28;20060;-81
2021/03/16 05:41:17;;;;;;;7.32;2.42;;;;;;;2.21;83.61;99455.78;5069857;28;20056;-82
2021/03/16 05:43:47;;;;;;;14.20;2.80;;;;;;;2.29;83.96;99472.97;5070374;28;20058;-82
2021/03/16 05:46:14;;;;;;;5.78;2.15;;;;;;;2.27;83.26;99472.25;5068446;28;20048;-82
2021/03/16 05:48:48;;;;;;;10.25;2.35;;;;;;;2.11;83.79;99458.38;5070439;28;20101;-82
2021/03/16 05:51:15;;;;;;;8.88;3.13;;;;;;;2.30;83.38;99488.09;5069429;28;20060;-82
2021/03/16 05:53:51;;;;;;;9.45;1.90;;;;;;;2.15;83.03;99462.50;5070371;28;20052;-82
2021/03/16 05:56:18;;;;;;;6.25;2.72;;;;;;;2.26;83.30;99475.06;5069017;28;20470;-82
2021/03/16 05:58:44;;;;;;;6.13;2.80;;;;;;;2.26;82.52;99485.81;5069557;28;20098;-82
2021/03/16 06:01:13;;;;;;;11.45;4.05;;;;;;;2.30;82.88;99484.56;5069470;28;20048;-81
2021/03/16 06:03:39;;;;;;;9.60;2.95;;;;;;;2.20;82.46;99465.69;5069535;28;20052;-81
2021/03/16 06:06:08;;;;;;;7.63;2.17;;;;;;;2.22;82.57;99479.81;5065867;28;20067;-82
2021/03/16 06:08:35;;;;;;;8.63;2.30;;;;;;;2.22;82.67;99479.81;5065238;28;20538;-81
2021/03/16 06:11:01;;;;;;;6.47;2.20;;;;;;;2.29;82.29;99497.13;5069914;28;20052;-82
2021/03/16 06:13:28;;;;;;;3.30;1.70;;;;;;;2.18;81.83;99475.66;5068585;28;20546;-81
2021/03/16 06:15:54;;;;;;;5.28;1.90;;;;;;;2.28;81.54;99506.13;5069268;28;20060;-82
2021/03/16 06:18:25;;;;;;;5.43;1.85;;;;;;;2.24;80.80;99495.78;5068083;28;20076;-81
2021/03/16 06:20:59;;;;;;;5.20;2.25;;;;;;;2.36;81.11;99500.16;5069302;28;20052;-81
2021/03/16 06:23:32;;;;;;;4.13;1.75;;;;;;;2.41;80.17;99500.66;5069058;28;20079;-82
2021/03/16 06:25:59;;;;;;;6.78;1.63;;;;;;;2.42;80.36;99513.06;5067254;28;21362;-82
2021/03/16 06:28:31;;;;;;;7.88;1.73;;;;;;;2.44;79.63;99513.81;5069420;28;20099;-79
2021/03/16 06:30:58;;;;;;;10.90;1.98;;;;;;;2.50;79.76;99525.88;5069414;28;20052;-80
2021/03/16 06:33:27;;;;;;;6.03;2.15;;;;;;;2.38;80.31;99498.22;5069462;28;20776;-80
2021/03/16 06:35:56;;;;;;;7.80;1.77;;;;;;;2.48;80.37;99507.22;5065994;28;20087;-81
2021/03/16 06:38:23;;;;;;;7.13;2.13;;;;;;;2.50;80.71;99533.94;5069544;28;20049;-81
2021/03/16 06:40:50;;;;;;;5.85;1.92;;;;;;;2.51;80.37;99526.72;5069029;28;20178;-81
2021/03/16 06:43:17;;;;;;;10.05;2.60;;;;;;;2.59;79.92;99525.13;5069907;28;20060;-80
2021/03/16 06:45:43;;;;;;;10.32;3.10;;;;;;;2.53;79.88;99514.91;5068440;28;20048;-80
2021/03/16 06:48:19;;;;;;;11.25;2.75;;;;;;;2.56;79.75;99524.50;5071011;28;20060;-81
2021/03/16 06:50:47;;;;;;;8.27;2.30;;;;;;;2.52;79.61;99526.59;5072931;28;20055;-81
2021/03/16 06:53:14;;;;;;;5.00;1.88;;;;;;;2.57;79.10;99535.13;5075382;28;20082;-80
2021/03/16 06:55:52;;;;;;;10.07;2.22;;;;;;;2.52;79.35;99531.13;5073287;28;20055;-81
2021/03/16 06:58:22;;;;;;;9.93;1.55;;;;;;;2.60;79.28;99556.34;5074798;28;20488;-80
2021/03/16 07:00:49;;;;;;;8.85;1.50;;;;;;;2.56;79.43;99540.63;5074718;28;20080;-81
2021/03/16 07:03:16;;;;;;;5.68;1.50;;;;;;;2.59;79.09;99564.53;5071804;28;20049;-80
2021/03/16 07:05:45;;;;;;;10.32;2.75;;;;;;;2.46;80.00;99552.09;5074179;28;20053;-80
2021/03/16 07:08:15;;;;;;;8.53;2.30;;;;;;;2.57;80.06;99578.06;5075252;28;20083;-80
2021/03/16 07:10:54;;;;;;;8.30;2.08;;;;;;;2.46;81.40;99587.00;5073020;28;20040;-80
2021/03/16 07:13:22;;;;;;;6.90;1.77;;;;;;;2.24;82.26;99574.47;5075275;28;20396;-80
2021/03/16 07:15:49;;;;;;;6.15;2.10;;;;;;;2.32;82.78;99595.31;5073387;28;20467;-81
2021/03/16 07:18:17;;;;;;;4.65;1.85;;;;;;;2.31;83.00;99607.00;5074126;28;20056;-82
2021/03/16 07:20:46;;;;;;;10.02;2.15;;;;;;;2.21;83.19;99582.72;5074715;28;20087;-80
2021/03/16 07:23:14;;;;;;;6.73;2.47;;;;;;;2.24;83.54;99590.56;5074807;28;20048;-81
2021/03/16 07:25:43;;;;;;;6.65;1.75;;;;;;;2.15;83.14;99585.88;5074391;28;20051;-81
2021/03/16 07:28:11;;;;;;;7.90;1.60;;;;;;;2.18;83.00;99591.00;5073994;28;20040;-80
2021/03/16 07:30:38;;;;;;;4.40;1.70;;;;;;;2.19;83.82;99583.84;5074290;28;20048;-80
2021/03/16 07:33:04;;;;;;;4.70;2.05;;;;;;;2.33;83.35;99605.03;5074159;28;20044;-81
2021/03/16 07:35:34;;;;;;;8.68;2.30;;;;;;;2.35;83.46;99599.56;5074048;28;20113;-81
2021/03/16 07:38:02;;;;;;;4.80;2.10;;;;;;;2.28;82.97;99613.47;5073557;28;20048;-80
2021/03/16 07:40:28;;;;;;;7.07;2.35;;;;;;;2.36;83.38;99614.69;5071025;28;20056;-80
2021/03/16 07:42:54;;;;;;;8.20;3.28;;;;;;;2.34;83.13;99617.50;5072166;28;20135;-80
2021/03/16 07:45:25;;;;;;;4.80;2.28;;;;;;;2.46;83.33;99615.66;5072456;28;20044;-80
2021/03/16 07:47:53;;;;;;;14.32;2.92;;;;;;;2.38;83.39;99605.56;5066566;28;20053;-80
2021/03/16 07:50:27;;;;;;;7.03;1.95;;;;;;;2.44;82.87;99613.09;5072372;28;20044;-80
2021/03/16 07:52:53;;;;;;;5.22;2.28;;;;;;;2.59;82.90;99624.47;5072055;28;20509;-81
2021/03/16 07:55:28;;;;;;;7.50;2.42;;;;;;;2.59;82.70;99619.09;5073078;28;20041;-80
2021/03/16 07:58:05;;;;;;;4.97;2.13;;;;;;;2.76;82.75;99636.53;5074873;28;20048;-80
2021/03/16 08:00:35;;;;;;;6.78;2.17;;;;;;;2.60;82.25;99620.78;5074385;28;20087;-80
2021/03/16 08:03:05;;;;;;;4.85;1.98;;;;;;;2.88;82.53;99648.09;5071352;28;20047;-80
2021/03/16 08:05:39;;;;;;;;;;;;;;;2.94;82.57;99642.25;5071906;28;20396;-80
2021/03/16 08:08:15;;;;;;;8.52;2.13;;;;;;;2.89;82.40;99628.34;5072949;28;19931;-80
2021/03/16 08:10:41;;;;;;;7.43;2.33;;;;;;;2.98;81.52;99650.88;5052961;28;20075;-80
2021/03/16 08:13:13;;;;;;;6.38;2.10;;;;;;;3.02;81.77;99638.94;5072573;28;20041;-80
2021/03/16 08:15:42;;;;;;;7.38;2.50;;;;;;;2.99;81.66;99628.44;5068914;28;20091;-79
2021/03/16 08:18:09;;;;;;;13.25;2.67;;;;;;;2.98;81.40;99638.34;5050553;28;20060;-79
2021/03/16 08:20:35;;;;;;;3.97;2.28;;;;;;;3.19;81.18;99656.34;5063583;28;20053;-80
2021/03/16 08:23:06;;;;;;;7.00;2.05;;;;;;;3.17;81.32;99658.31;5071603;28;20044;-80
2021/03/16 08:25:33;;;;;;;11.18;2.45;;;;;;;3.05;81.12;99640.50;5063978;28;20049;-80
2021/03/16 08:28:06;;;;;;;4.97;2.50;;;;;;;3.15;80.76;99649.53;5061201;28;20079;-80
2021/03/16 08:30:33;;;;;;;6.82;2.13;;;;;;;3.16;80.06;99659.28;5053488;28;20119;-80
2021/03/16 08:33:09;;;;;;;14.40;2.47;;;;;;;3.14;78.76;99658.56;5068913;28;20431;-80
2021/03/16 08:35:35;;;;;;;10.95;3.30;;;;;;;3.16;79.42;99654.78;5055742;28;20075;-80
2021/03/16 08:38:01;;;;;;;7.97;2.08;;;;;;;3.18;79.10;99660.88;5072013;28;20094;-79
2021/03/16 08:40:28;;;;;;;14.32;2.70;;;;;;;3.07;79.34;99652.84;5071246;28;20125;-80
2021/03/16 08:42:54;;;;;;;6.35;2.22;;;;;;;2.99;79.80;99649.91;5071324;28;20125;-80
2021/03/16 08:45:28;;;;;;;7.00;2.45;;;;;;;2.98;80.32;99657.13;5069664;28;20044;-80
2021/03/16 08:47:55;;;;;;;6.85;2.10;;;;;;;2.90;80.55;99659.56;5071215;28;20233;-80
2021/03/16 08:50:24;;;;;;;9.02;2.72;;;;;;;3.01;80.29;99669.44;5071222;28;20129;-80
2021/03/16 08:52:50;;;;;;;13.95;2.70;;;;;;;3.03;80.50;99653.19;5071655;28;20056;-80
2021/03/16 08:55:24;;;;;;;8.13;2.38;;;;;;;3.15;80.34;99674.56;5069817;28;20443;-80
2021/03/16 08:57:52;;;;;;;7.18;2.45;;;;;;;3.26;79.88;99673.69;5068761;28;20044;-80
2021/03/16 09:00:23;;;;;;;19.17;3.35;;;;;;;3.32;80.12;99678.53;5066507;28;20071;-80
2021/03/16 09:02:49;;;;;;;23.30;4.35;;;;;;;3.27;80.11;99666.50;5051194;28;20094;-80
2021/03/16 09:05:21;;;;;;;21.02;4.47;;;;;;;3.32;80.09;99678.53;5064959;28;20565;-80
2021/03/16 09:07:48;;;;;;;6.85;2.00;;;;;;;3.22;79.27;99672.22;5070885;28;20374;-80
2021/03/16 09:10:18;;;;;;;8.00;2.50;;;;;;;3.21;79.02;99664.28;5069579;28;20044;-80
2021/03/16 09:12:46;;;;;;;15.15;2.78;;;;;;;3.22;78.58;99666.84;5070522;28;20050;-80
2021/03/16 09:15:15;;;;;;;10.43;2.92;;;;;;;3.44;78.70;99684.75;5070528;28;20131;-80
2021/03/16 09:17:42;;;;;;;10.93;2.50;;;;;;;3.33;78.27;99656.06;5061540;28;20049;-81
2021/03/16 09:20:15;;;;;;;6.45;2.25;;;;;;;3.44;77.66;99655.19;5069945;28;20048;-81
2021/03/16 09:22:45;;;;;;;7.78;2.58;;;;;;;3.51;77.55;99677.91;5064456;28;20048;-81
2021/03/16 09:25:13;;;;;;;11.98;2.63;;;;;;;3.45;77.22;99673.03;5050419;28;20084;-81
2021/03/16 09:27:42;;;;;;;6.60;2.97;;;;;;;3.49;76.70;99676.31;5060207;28;20087;-80
2021/03/16 09:30:11;;;;;;;12.30;2.97;;;;;;;3.58;77.13;99680.06;5070770;28;20458;-81
2021/03/16 09:32:43;;;;;;;10.40;3.42;;;;;;;3.61;77.01;99667.22;5070211;28;20057;-81
2021/03/16 09:35:12;;;;;;;8.23;2.78;;;;;;;3.74;77.09;99693.94;5069475;28;20052;-81
2021/03/16 09:37:43;;;;;;;9.15;2.83;;;;;;;3.70;77.41;99698.75;5070529;28;20484;-81
2021/03/16 09:40:17;;;;;;;11.85;3.60;;;;;;;3.67;77.35;99687.38;5070151;28;20125;-80
2021/03/16 09:42:47;;;;;;;7.22;3.63;;;;;;;3.67;77.69;99685.56;5070458;28;20492;-81
2021/03/16 09:45:17;;;;;;;7.75;2.72;;;;;;;3.65;77.89;99692.03;5059941;28;20055;-81
2021/03/16 09:47:46;;;;;;;9.90;3.15;;;;;;;3.54;77.55;99687.56;5070512;28;20048;-81
2021/03/16 09:50:19;;;;;;;15.57;2.95;;;;;;;3.53;77.87;99691.22;5069591;28;20044;-81
2021/03/16 09:52:46;;;;;;;10.13;2.45;;;;;;;3.59;78.14;99698.75;5068807;28;20048;-81
2021/03/16 09:55:17;;;;;;;7.20;2.58;;;;;;;3.46;77.51;99687.31;5066326;28;20102;-81
2021/03/16 09:57:48;;;;;;;9.73;2.20;;;;;;;3.59;77.76;99708.69;5069955;28;20110;-80
2021/03/16 10:00:19;;;;;;;11.05;2.47;;;;;;;3.47;77.61;99694.41;5070343;28;20466;-80
2021/03/16 10:02:47;;;;;;;12.43;3.03;;;;;;;3.48;77.59;99702.34;5070032;28;20143;-81
2021/03/16 10:05:15;;;;;;;5.63;2.53;;;;;;;3.47;77.96;99708.69;5069496;28;20287;-81
2021/03/16 10:13:13;;;;;;;11.93;3.63;;;;;;;3.66;76.96;99680.31;5067051;28;20143;-81
2021/03/16 10:15:45;;;;;;;15.27;3.70;;;;;;;3.77;76.33;99684.78;5069582;28;20071;-81
2021/03/16 10:18:15;;;;;;;9.15;4.45;;;;;;;4.02;76.10;99692.50;5060854;28;20045;-81
2021/03/16 10:20:43;;;;;;;;;;;;;;;4.12;76.26;99694.38;5051452;28;20040;-80
2021/03/16 10:23:17;;;;;;;11.38;4.65;;;;;;;4.02;75.83;99683.53;5069808;28;19927;-81
2021/03/16 10:25:58;;;;;;;12.52;4.00;;;;;;;4.01;75.76;99698.00;5057203;28;20049;-81
2021/03/16 10:28:33;;;;;;;11.40;3.67;;;;;;;3.92;76.68;99670.03;5068411;28;20056;-81
2021/03/16 10:31:13;;;;;;;8.32;3.78;;;;;;;4.02;76.13;99694.31;5054638;28;20056;-81
2021/03/16 10:33:39;;;;;;;9.85;3.20;;;;;;;3.92;75.52;99675.41;5065369;28;20496;-81
2021/03/16 10:36:07;;;;;;;10.18;3.22;;;;;;;4.05;75.94;99702.13;5073865;28;20102;-81
2021/03/16 10:38:36;;;;;;;11.40;3.47;;;;;;;4.16;75.44;99703.91;5073841;28;20060;-81
2021/03/16 10:41:03;;;;;;;5.50;2.95;;;;;;;4.21;74.48;99693.59;5054539;28;20107;-81
2021/03/16 10:43:29;;;;;;;6.35;2.97;;;;;;;4.23;74.18;99686.25;5055092;28;20041;-81
2021/03/16 10:45:57;;;;;;;11.18;3.47;;;;;;;4.26;73.51;99680.63;5072923;28;20384;-82
2021/03/16 10:48:24;;;;;;;12.15;3.45;;;;;;;4.40;73.16;99682.13;5074340;28;20072;-81
2021/03/16 10:50:50;;;;;;;9.00;2.95;;;;;;;4.45;72.53;99696.03;5072784;28;20562;-81
2021/03/16 10:53:17;;;;;;;11.82;2.80;;;;;;;4.56;72.72;99698.66;5073777;28;20060;-81
2021/03/16 10:55:44;;;;;;;7.15;2.90;;;;;;;4.28;72.48;99681.34;5072408;28;20373;-82
2021/03/16 10:58:11;;;;;;;13.50;3.15;;;;;;;4.66;72.69;99695.16;5073813;28;20051;-81
2021/03/16 11:00:38;;;;;;;7.43;2.53;;;;;;;4.68;70.97;99698.56;5072830;28;20245;-81
2021/03/16 11:03:04;;;;;;;7.75;2.80;;;;;;;4.80;71.40;99694.78;5073590;28;20130;-81
2021/03/16 11:05:32;;;;;;;8.90;3.20;;;;;;;4.94;70.83;99704.38;5072098;28;20044;-82
2021/03/16 11:07:58;;;;;;;10.40;2.92;;;;;;;5.00;70.38;99702.94;5073433;28;20571;-82
2021/03/16 11:10:25;;;;;;;16.70;3.47;;;;;;;5.03;69.30;99692.75;5067713;28;20045;-82
2021/03/16 11:12:52;;;;;;;13.68;3.03;;;;;;;4.96;70.10;99691.59;5070363;28;20114;-82
2021/03/16 11:15:19;;;;;;;11.68;3.53;;;;;;;5.14;69.91;99702.59;5072341;28;20080;-82
2021/03/16 11:18:01;;;;;;;11.23;2.67;;;;;;;5.07;69.95;99691.50;5071745;28;20057;-81
2021/03/16 11:20:31;;;;;;;7.68;2.53;;;;;;;5.02;69.70;99701.00;5073331;28;20376;-82
2021/03/16 11:22:59;;;;;;;3.88;2.38;;;;;;;5.06;69.47;99689.78;5061180;28;20056;-81
2021/03/16 11:25:28;;;;;;;12.18;2.70;;;;;;;4.97;68.68;99691.47;5073008;28;20053;-82
2021/03/16 11:27:57;;;;;;;3.22;2.03;;;;;;;4.88;67.89;99699.53;5058027;28;20094;-81
2021/03/16 11:30:34;;;;;;;12.10;3.15;;;;;;;4.80;68.64;99705.56;5073081;28;20052;-81
2021/03/16 11:33:04;;;;;;;5.65;2.65;;;;;;;4.84;68.53;99708.84;5054327;28;20411;-81
2021/03/16 11:35:39;;;;;;;6.60;2.30;;;;;;;4.70;68.48;99694.75;5071849;28;20090;-82
2021/03/16 11:38:11;;;;;;;16.65;3.20;;;;;;;4.86;68.44;99704.16;5056319;28;20120;-81
2021/03/16 11:40:44;;;;;;;7.30;2.80;;;;;;;4.80;69.23;99689.38;5072031;28;20052;-82
2021/03/16 11:43:16;;;;;;;10.85;3.35;;;;;;;4.91;70.03;99702.78;5072335;28;20066;-82
2021/03/16 11:45:44;;;;;;;14.95;3.10;;;;;;;4.87;68.06;99685.19;5071815;28;20048;-82
2021/03/16 11:48:10;;;;;;;10.60;4.35;;;;;;;4.76;69.14;99691.50;5072417;28;20059;-81
2021/03/16 11:50:37;;;;;;;13.30;3.33;;;;;;;4.78;68.56;99692.22;5071926;28;20060;-82
2021/03/16 11:53:07;;;;;;;2.42;1.63;;;;;;;4.77;67.46;99690.53;5071773;28;20040;-82
2021/03/16 11:55:34;;;;;;;8.68;2.75;;;;;;;4.77;67.17;99698.63;5064953;28;20078;-82